PWSweather.com
Personal Weather Stations
Station Observations
NBW76
Silver Creek, North Bend, WA 98065

Silver CreekNorth Bend, WA 98065

Lat: 47.4993612, Lon: -121.7783245

Elevation: 443

Station Type: Davisd VP2 + Solar + UV + Webcam

Latest ConditionsUpdated 1:40:00 PM PDT Monday, Sep 23, 2019
Currently Today's Max Today's Min Today's Average
Temperature 60.1°F15.6°C 60.9°F16.1°C 54.2°F12.3°C 57.2°F14.0°C
Dew Point 51.0°F10.6°C 53.9°F12.2°C 48.5°F9.2°C 50.8°F10.4°C
Winds 1.2 mph ESE1.9 kmh ESE 4.6 mph -7.4 kmh - - 1.5 mph 2.4 kmh
Wind Gusts 4.6 mph7.4 kmh 9.2 mph14.8 kmh - -
Humidity 72% 91% 67% 79%
Pressure 30.20 in1022.7 mb 30.20 in1022.7 mb 29.98 in1015.2 mb -
Precipitation - 0.05 in1.3 mm - -
Hour Temp Dew Point Humidity Winds Wind Gusts Pressure Precip Precip Rate Daily Precip Total
01:40 PM 60.1°F15.6°C 51.0°F10.6°C 72% 1.2 mph ESE1.9 kmh ESE 4.6 mph7.4 kmh 30.20 in1022.7 mb - 0.00 in0.0 mm 0.05 in1.3 mm
01:30 PM 60.0°F15.6°C 50.9°F10.5°C 72% 2.3 mph SE3.7 kmh SE 3.5 mph5.6 kmh 30.20 in1022.7 mb - 0.00 in0.0 mm 0.05 in1.3 mm
01:20 PM 59.9°F15.5°C 50.8°F10.4°C 72% 2.3 mph ESE3.7 kmh ESE 4.6 mph7.4 kmh 30.20 in1022.7 mb - 0.00 in0.0 mm 0.05 in1.3 mm
01:10 PM 59.8°F15.4°C 50.8°F10.4°C 72% 1.2 mph ESE1.9 kmh ESE 3.5 mph5.6 kmh 30.20 in1022.7 mb - 0.01 in0.3 mm 0.05 in1.3 mm
01:00 PM 60.0°F15.6°C 51.3°F10.7°C 73% 1.2 mph NE1.9 kmh NE 2.3 mph3.7 kmh 30.19 in1022.4 mb - 0.01 in0.3 mm 0.05 in1.3 mm
12:50 PM 59.9°F15.5°C 51.6°F10.9°C 74% 1.2 mph WSW1.9 kmh WSW 2.3 mph3.7 kmh 30.19 in1022.4 mb - 0.01 in0.3 mm 0.05 in1.3 mm
12:40 PM 59.4°F15.2°C 51.1°F10.6°C 74% 2.3 mph WNW3.7 kmh WNW 3.5 mph5.6 kmh 30.19 in1022.4 mb - 0.01 in0.3 mm 0.05 in1.3 mm
12:30 PM 59.5°F15.3°C 50.8°F10.4°C 73% 2.3 mph NNE3.7 kmh NNE 2.3 mph3.7 kmh 30.19 in1022.4 mb - 0.01 in0.3 mm 0.05 in1.3 mm
12:20 PM 59.7°F15.4°C 50.3°F10.2°C 71% 2.3 mph NE3.7 kmh NE 3.5 mph5.6 kmh 30.18 in1022.0 mb - 0.01 in0.3 mm 0.05 in1.3 mm
12:10 PM 59.9°F15.5°C 50.1°F10.1°C 70% 1.2 mph SSE1.9 kmh SSE 2.3 mph3.7 kmh 30.18 in1022.0 mb - 0.00 in0.0 mm 0.04 in1.0 mm
12:00 PM 60.3°F15.7°C 49.7°F9.8°C 68% 3.5 mph E5.6 kmh E 4.6 mph7.4 kmh 30.18 in1022.0 mb - 0.00 in0.0 mm 0.04 in1.0 mm
11:50 AM 60.6°F15.9°C 50.0°F10.0°C 68% 3.5 mph NE5.6 kmh NE 6.9 mph11.1 kmh 30.17 in1021.7 mb - 0.00 in0.0 mm 0.04 in1.0 mm
11:40 AM 60.9°F16.1°C 50.3°F10.2°C 68% 2.3 mph ESE3.7 kmh ESE 9.2 mph14.8 kmh 30.18 in1022.0 mb - 0.00 in0.0 mm 0.04 in1.0 mm
11:30 AM 60.0°F15.6°C 49.4°F9.7°C 68% 1.2 mph E1.9 kmh E 3.5 mph5.6 kmh 30.19 in1022.4 mb - 0.00 in0.0 mm 0.04 in1.0 mm
11:20 AM 59.7°F15.4°C 49.5°F9.7°C 69% 2.3 mph E3.7 kmh E 3.5 mph5.6 kmh 30.19 in1022.4 mb - 0.00 in0.0 mm 0.04 in1.0 mm
11:10 AM 59.6°F15.3°C 49.4°F9.7°C 69% 4.6 mph E7.4 kmh E 9.2 mph14.8 kmh 30.19 in1022.4 mb - 0.00 in0.0 mm 0.04 in1.0 mm
11:00 AM 59.5°F15.3°C 48.5°F9.2°C 67% 1.2 mph NE1.9 kmh NE 4.6 mph7.4 kmh 30.18 in1022.0 mb - 0.00 in0.0 mm 0.04 in1.0 mm
10:50 AM 59.5°F15.3°C 48.5°F9.2°C 67% 2.3 mph E3.7 kmh E 3.5 mph5.6 kmh 30.18 in1022.0 mb - 0.00 in0.0 mm 0.04 in1.0 mm
10:40 AM 59.7°F15.4°C 49.9°F9.9°C 70% 1.2 mph E1.9 kmh E 3.5 mph5.6 kmh 30.17 in1021.7 mb - 0.00 in0.0 mm 0.04 in1.0 mm
10:30 AM 59.7°F15.4°C 48.7°F9.3°C 67% 2.3 mph SE3.7 kmh SE 5.8 mph9.3 kmh 30.17 in1021.7 mb - 0.00 in0.0 mm 0.04 in1.0 mm
10:20 AM 60.0°F15.6°C 49.4°F9.7°C 68% Calm Calm 2.3 mph3.7 kmh 30.17 in1021.7 mb - 0.00 in0.0 mm 0.04 in1.0 mm
10:10 AM 60.2°F15.7°C 49.6°F9.8°C 68% 2.3 mph NE3.7 kmh NE 2.3 mph3.7 kmh 30.16 in1021.3 mb - 0.00 in0.0 mm 0.04 in1.0 mm
10:00 AM 59.5°F15.3°C 49.4°F9.7°C 69% 2.3 mph SE3.7 kmh SE 3.5 mph5.6 kmh 30.16 in1021.3 mb - 0.00 in0.0 mm 0.04 in1.0 mm
09:50 AM 59.2°F15.1°C 49.0°F9.4°C 69% 2.3 mph SE3.7 kmh SE 3.5 mph5.6 kmh 30.16 in1021.3 mb - 0.00 in0.0 mm 0.04 in1.0 mm
09:40 AM 58.8°F14.9°C 49.0°F9.4°C 70% 2.3 mph E3.7 kmh E 3.5 mph5.6 kmh 30.16 in1021.3 mb - 0.00 in0.0 mm 0.04 in1.0 mm
09:30 AM 58.7°F14.8°C 49.3°F9.6°C 71% 3.5 mph ESE5.6 kmh ESE 3.5 mph5.6 kmh 30.16 in1021.3 mb - 0.00 in0.0 mm 0.04 in1.0 mm
09:20 AM 57.8°F14.3°C 49.6°F9.8°C 74% Calm Calm 2.3 mph3.7 kmh 30.16 in1021.3 mb - 0.00 in0.0 mm 0.04 in1.0 mm
09:10 AM 57.3°F14.1°C 49.1°F9.5°C 74% 1.2 mph SE1.9 kmh SE 3.5 mph5.6 kmh 30.15 in1021.0 mb - 0.00 in0.0 mm 0.04 in1.0 mm
09:00 AM 57.3°F14.1°C 49.1°F9.5°C 74% 1.2 mph ENE1.9 kmh ENE 3.5 mph5.6 kmh 30.15 in1021.0 mb - 0.00 in0.0 mm 0.04 in1.0 mm
08:50 AM 56.6°F13.7°C 49.1°F9.5°C 76% 1.2 mph SE1.9 kmh SE 1.2 mph1.9 kmh 30.15 in1021.0 mb - 0.00 in0.0 mm 0.04 in1.0 mm
08:40 AM 56.3°F13.5°C 48.8°F9.3°C 76% 1.2 mph NE1.9 kmh NE 6.9 mph11.1 kmh 30.14 in1020.7 mb - 0.00 in0.0 mm 0.04 in1.0 mm
08:30 AM 56.4°F13.6°C 49.3°F9.6°C 77% 1.2 mph E1.9 kmh E 3.5 mph5.6 kmh 30.14 in1020.7 mb - 0.00 in0.0 mm 0.04 in1.0 mm
08:20 AM 56.0°F13.3°C 49.2°F9.6°C 78% 1.2 mph E1.9 kmh E 2.3 mph3.7 kmh 30.14 in1020.7 mb - 0.00 in0.0 mm 0.04 in1.0 mm
08:10 AM 56.1°F13.4°C 49.0°F9.4°C 77% 2.3 mph ESE3.7 kmh ESE 3.5 mph5.6 kmh 30.13 in1020.3 mb - 0.00 in0.0 mm 0.04 in1.0 mm
08:00 AM 55.8°F13.2°C 49.0°F9.4°C 78% 3.5 mph ESE5.6 kmh ESE 4.6 mph7.4 kmh 30.12 in1020.0 mb - 0.00 in0.0 mm 0.04 in1.0 mm
07:50 AM 55.3°F12.9°C 48.9°F9.4°C 79% 1.2 mph SE1.9 kmh SE 4.6 mph7.4 kmh 30.12 in1020.0 mb - 0.00 in0.0 mm 0.04 in1.0 mm
07:40 AM 55.0°F12.8°C 49.0°F9.4°C 80% 1.2 mph SE1.9 kmh SE 2.3 mph3.7 kmh 30.11 in1019.6 mb - 0.00 in0.0 mm 0.04 in1.0 mm
07:30 AM 55.1°F12.8°C 49.0°F9.4°C 80% 2.3 mph NE3.7 kmh NE 4.6 mph7.4 kmh 30.10 in1019.3 mb - 0.00 in0.0 mm 0.04 in1.0 mm
07:20 AM 55.0°F12.8°C 49.3°F9.6°C 81% 1.2 mph SE1.9 kmh SE 2.3 mph3.7 kmh 30.11 in1019.6 mb - 0.00 in0.0 mm 0.04 in1.0 mm
07:10 AM 55.2°F12.9°C 49.5°F9.7°C 81% Calm Calm 3.5 mph5.6 kmh 30.09 in1019.0 mb - 0.00 in0.0 mm 0.04 in1.0 mm
07:00 AM 55.0°F12.8°C 49.6°F9.8°C 82% 1.2 mph E1.9 kmh E 1.2 mph1.9 kmh 30.08 in1018.6 mb - 0.00 in0.0 mm 0.04 in1.0 mm
06:50 AM 54.6°F12.6°C 50.2°F10.1°C 85% 2.3 mph ESE3.7 kmh ESE 3.5 mph5.6 kmh 30.09 in1019.0 mb - 0.00 in0.0 mm 0.04 in1.0 mm
06:40 AM 54.2°F12.3°C 50.8°F10.4°C 88% 2.3 mph SE3.7 kmh SE 3.5 mph5.6 kmh 30.09 in1019.0 mb - 0.00 in0.0 mm 0.04 in1.0 mm
06:30 AM 54.5°F12.5°C 50.7°F10.4°C 87% Calm Calm -- 30.09 in1019.0 mb - 0.01 in0.3 mm 0.04 in1.0 mm
06:20 AM 54.8°F12.7°C 51.0°F10.6°C 87% Calm Calm -- 30.09 in1019.0 mb - 0.02 in0.5 mm 0.04 in1.0 mm
06:10 AM 54.8°F12.7°C 50.7°F10.4°C 86% Calm Calm -- 30.08 in1018.6 mb - 0.02 in0.5 mm 0.04 in1.0 mm
06:00 AM 54.5°F12.5°C 51.0°F10.6°C 88% 1.2 mph SE1.9 kmh SE 3.5 mph5.6 kmh 30.08 in1018.6 mb - 0.04 in1.0 mm 0.04 in1.0 mm
05:50 AM 54.5°F12.5°C 51.3°F10.7°C 89% 1.2 mph ENE1.9 kmh ENE 3.5 mph5.6 kmh 30.07 in1018.3 mb - 0.04 in1.0 mm 0.04 in1.0 mm
05:40 AM 54.7°F12.6°C 51.5°F10.8°C 89% 1.2 mph ESE1.9 kmh ESE 1.2 mph1.9 kmh 30.06 in1017.9 mb - 0.04 in1.0 mm 0.04 in1.0 mm
05:30 AM 55.1°F12.8°C 51.6°F10.9°C 88% 3.5 mph ESE5.6 kmh ESE 3.5 mph5.6 kmh 30.08 in1018.6 mb - 0.04 in1.0 mm 0.04 in1.0 mm
05:20 AM 55.3°F12.9°C 51.5°F10.8°C 87% Calm Calm -- 30.08 in1018.6 mb - 0.02 in0.5 mm 0.02 in0.5 mm
05:10 AM 55.4°F13.0°C 51.6°F10.9°C 87% 1.2 mph SE1.9 kmh SE 2.3 mph3.7 kmh 30.07 in1018.3 mb - 0.02 in0.5 mm 0.02 in0.5 mm
05:00 AM 55.7°F13.2°C 51.6°F10.9°C 86% Calm Calm 1.2 mph1.9 kmh 30.06 in1017.9 mb - 0.01 in0.3 mm 0.01 in0.3 mm
04:50 AM 56.0°F13.3°C 51.5°F10.8°C 85% 1.2 mph SE1.9 kmh SE 2.3 mph3.7 kmh 30.05 in1017.6 mb - 0.00 in0.0 mm 0.00 in0.0 mm
04:40 AM 56.0°F13.3°C 51.6°F10.9°C 85% Calm Calm 3.5 mph5.6 kmh 30.05 in1017.6 mb - 0.00 in0.0 mm 0.00 in0.0 mm
04:30 AM 56.0°F13.3°C 51.6°F10.9°C 85% 2.3 mph SSW3.7 kmh SSW 3.5 mph5.6 kmh 30.04 in1017.3 mb - 0.00 in0.0 mm 0.00 in0.0 mm
04:20 AM 56.0°F13.3°C 51.5°F10.8°C 85% 1.2 mph NE1.9 kmh NE 2.3 mph3.7 kmh 30.03 in1016.9 mb - 0.00 in0.0 mm 0.00 in0.0 mm
04:10 AM 55.9°F13.3°C 51.7°F10.9°C 86% 1.2 mph SE1.9 kmh SE 3.5 mph5.6 kmh 30.03 in1016.9 mb - 0.00 in0.0 mm 0.00 in0.0 mm
04:00 AM 56.1°F13.4°C 51.7°F10.9°C 85% 2.3 mph SE3.7 kmh SE 4.6 mph7.4 kmh 30.03 in1016.9 mb - 0.00 in0.0 mm 0.00 in0.0 mm
03:50 AM 56.5°F13.6°C 51.7°F10.9°C 84% 1.2 mph SE1.9 kmh SE 2.3 mph3.7 kmh 30.03 in1016.9 mb - 0.00 in0.0 mm 0.00 in0.0 mm
03:40 AM 56.8°F13.8°C 52.0°F11.1°C 84% 2.3 mph ESE3.7 kmh ESE 3.5 mph5.6 kmh 30.03 in1016.9 mb - 0.00 in0.0 mm 0.00 in0.0 mm
03:30 AM 57.1°F13.9°C 51.6°F10.9°C 82% 1.2 mph E1.9 kmh E 2.3 mph3.7 kmh 30.03 in1016.9 mb - 0.00 in0.0 mm 0.00 in0.0 mm
03:20 AM 57.3°F14.1°C 51.9°F11.1°C 82% 1.2 mph NW1.9 kmh NW 1.2 mph1.9 kmh 30.03 in1016.9 mb - 0.00 in0.0 mm 0.00 in0.0 mm
03:10 AM 57.5°F14.2°C 51.7°F10.9°C 81% 1.2 mph ENE1.9 kmh ENE 1.2 mph1.9 kmh 30.02 in1016.6 mb - 0.00 in0.0 mm 0.00 in0.0 mm
03:00 AM 57.6°F14.2°C 51.8°F11.0°C 81% 2.3 mph E3.7 kmh E 3.5 mph5.6 kmh 30.02 in1016.6 mb - 0.00 in0.0 mm 0.00 in0.0 mm
02:50 AM 57.1°F13.9°C 51.7°F10.9°C 82% 2.3 mph NE3.7 kmh NE 5.8 mph9.3 kmh 30.01 in1016.3 mb - 0.00 in0.0 mm 0.00 in0.0 mm
02:40 AM 57.1°F13.9°C 51.7°F10.9°C 82% 1.2 mph ENE1.9 kmh ENE 3.5 mph5.6 kmh 30.01 in1016.3 mb - 0.00 in0.0 mm 0.00 in0.0 mm
02:30 AM 57.3°F14.1°C 51.9°F11.1°C 82% 2.3 mph ENE3.7 kmh ENE 4.6 mph7.4 kmh 30.01 in1016.3 mb - 0.00 in0.0 mm 0.00 in0.0 mm
02:20 AM 56.8°F13.8°C 52.0°F11.1°C 84% 2.3 mph NE3.7 kmh NE 4.6 mph7.4 kmh 30.01 in1016.3 mb - 0.00 in0.0 mm 0.00 in0.0 mm
02:10 AM 56.6°F13.7°C 52.1°F11.2°C 85% 1.2 mph ESE1.9 kmh ESE 2.3 mph3.7 kmh 30.01 in1016.3 mb - 0.00 in0.0 mm 0.00 in0.0 mm
02:00 AM 56.3°F13.5°C 52.2°F11.2°C 86% 2.3 mph SE3.7 kmh SE 3.5 mph5.6 kmh 30.01 in1016.3 mb - 0.00 in0.0 mm 0.00 in0.0 mm
01:50 AM 56.2°F13.4°C 52.1°F11.2°C 86% Calm Calm 1.2 mph1.9 kmh 30.01 in1016.3 mb - 0.00 in0.0 mm 0.00 in0.0 mm
01:40 AM 56.0°F13.3°C 52.2°F11.2°C 87% 2.3 mph NE3.7 kmh NE 6.9 mph11.1 kmh 30.00 in1015.9 mb - 0.00 in0.0 mm 0.00 in0.0 mm
01:30 AM 55.9°F13.3°C 52.1°F11.2°C 87% Calm Calm -- 30.00 in1015.9 mb - 0.00 in0.0 mm 0.00 in0.0 mm
01:20 AM 55.8°F13.2°C 52.3°F11.3°C 88% 1.2 mph E1.9 kmh E 1.2 mph1.9 kmh 30.00 in1015.9 mb - 0.00 in0.0 mm 0.00 in0.0 mm
01:10 AM 55.9°F13.3°C 52.4°F11.3°C 88% Calm Calm -- 30.00 in1015.9 mb - 0.00 in0.0 mm 0.00 in0.0 mm
01:00 AM 56.1°F13.4°C 52.3°F11.3°C 87% Calm Calm 1.2 mph1.9 kmh 30.00 in1015.9 mb - 0.00 in0.0 mm 0.00 in0.0 mm
12:50 AM 56.3°F13.5°C 52.5°F11.4°C 87% Calm Calm -- 30.00 in1015.9 mb - 0.00 in0.0 mm 0.00 in0.0 mm
12:40 AM 56.0°F13.3°C 52.5°F11.4°C 88% 2.3 mph ESE3.7 kmh ESE 3.5 mph5.6 kmh 29.99 in1015.6 mb - 0.00 in0.0 mm 0.00 in0.0 mm
12:30 AM 55.9°F13.3°C 53.0°F11.7°C 90% Calm Calm 3.5 mph5.6 kmh 29.98 in1015.2 mb - 0.00 in0.0 mm 0.00 in0.0 mm
12:20 AM 55.7°F13.2°C 52.8°F11.6°C 90% 1.2 mph ESE1.9 kmh ESE 3.5 mph5.6 kmh 29.98 in1015.2 mb - 0.00 in0.0 mm 0.00 in0.0 mm
12:10 AM 56.0°F13.3°C 53.1°F11.7°C 90% 1.2 mph SE1.9 kmh SE 2.3 mph3.7 kmh 29.98 in1015.2 mb - 0.00 in0.0 mm 0.00 in0.0 mm
12:00 AM 56.5°F13.6°C 53.9°F12.2°C 91% 1.2 mph WNW1.9 kmh WNW 2.3 mph3.7 kmh 29.99 in1015.6 mb - 0.00 in0.0 mm 0.00 in0.0 mm